Time;durP1;ratioP1;P1;durP2;ratioP2;P2;SDS_P1;SDS_P2;PMS_P1;PMS_P2;Temp;Humidity;BMP_temperature;BMP_pressure;BME280_temperature;BME280_humidity;BME280_pressure;Samples;Min_cycle;Max_cycle;Signal;HPM_P1;HPM_P2
2022/06/06 00:02:10;;;;;;;5.53;5.03;;;21.10;99.90;;;;;;5015265;28;20639;-53
2022/06/06 00:04:37;;;;;;;10.33;6.57;;;21.10;99.90;;;;;;5010112;28;21039;-53
2022/06/06 00:07:04;;;;;;;9.70;6.67;;;21.00;99.90;;;;;;5011825;28;20938;-53
2022/06/06 00:09:31;;;;;;;10.63;6.57;;;21.00;99.90;;;;;;5012253;28;20550;-52
2022/06/06 00:11:58;;;;;;;5.70;5.23;;;21.00;99.90;;;;;;5016415;28;20547;-53
2022/06/06 00:14:25;;;;;;;11.73;6.87;;;21.00;99.90;;;;;;5010719;28;20495;-52
2022/06/06 00:16:53;;;;;;;8.97;5.80;;;21.00;99.90;;;;;;5015548;28;20558;-52
2022/06/06 00:19:20;;;;;;;5.50;4.97;;;20.90;99.90;;;;;;5019175;28;20460;-52
2022/06/06 00:21:47;;;;;;;6.20;5.70;;;20.90;99.90;;;;;;5011473;28;20622;-53
2022/06/06 00:24:15;;;;;;;9.23;5.20;;;20.90;99.90;;;;;;5011379;28;20456;-52
2022/06/06 00:26:42;;;;;;;6.50;5.87;;;20.90;99.90;;;;;;5017728;28;20570;-52
2022/06/06 00:29:10;;;;;;;9.27;5.10;;;20.90;99.90;;;;;;5028094;28;20948;-50
2022/06/06 00:37:11;;;;;;;4.93;4.53;;;20.90;99.90;;;;;;5005454;28;20556;-53
2022/06/06 00:39:38;;;;;;;4.70;4.37;;;20.80;99.90;;;;;;4999989;28;20497;-52
2022/06/06 00:42:12;;;;;;;11.10;5.20;;;20.80;99.90;;;;;;5011841;28;20574;-52
2022/06/06 00:44:41;;;;;;;6.90;4.67;;;20.80;99.90;;;;;;5021436;28;20473;-53
2022/06/06 00:47:16;;;;;;;8.73;4.20;;;20.80;99.90;;;;;;5014818;28;20590;-52
2022/06/06 00:49:48;;;;;;;8.50;5.10;;;20.80;99.90;;;;;;5003013;28;20521;-52
2022/06/06 00:52:17;;;;;;;5.37;4.97;;;20.80;99.90;;;;;;5001614;28;20427;-52
2022/06/06 00:54:46;;;;;;;5.50;5.10;;;20.80;99.90;;;;;;5012391;28;20538;-53
2022/06/06 00:57:17;;;;;;;5.80;5.17;;;20.80;99.90;;;;;;5011262;28;20468;-54
2022/06/06 00:59:46;;;;;;;5.30;4.80;;;20.70;99.90;;;;;;5014941;28;20970;-53
2022/06/06 01:02:14;;;;;;;7.43;5.50;;;20.70;99.90;;;;;;5021060;28;20482;-52
2022/06/06 01:04:42;;;;;;;7.73;4.57;;;20.70;99.90;;;;;;5010396;28;20579;-53
2022/06/06 01:07:11;;;;;;;6.07;5.47;;;20.70;99.90;;;;;;5008921;28;20546;-52
2022/06/06 01:09:40;;;;;;;11.10;4.50;;;20.60;99.90;;;;;;5012211;28;20543;-52
2022/06/06 01:12:11;;;;;;;5.43;4.93;;;20.60;99.90;;;;;;5011003;28;20539;-53
2022/06/06 01:14:42;;;;;;;5.87;5.37;;;20.60;99.90;;;;;;5011525;28;20891;-52
2022/06/06 01:17:15;;;;;;;7.73;5.03;;;20.60;99.90;;;;;;5031077;28;20545;-52
2022/06/06 01:20:12;;;;;;;5.20;4.80;;;20.60;99.90;;;;;;5003085;28;20456;-53
2022/06/06 01:23:14;;;;;;;5.50;5.00;;;20.60;99.90;;;;;;5007702;28;20454;-52
2022/06/06 01:26:10;;;;;;;5.23;4.83;;;20.50;99.90;;;;;;5002383;28;20567;-53
2022/06/06 01:28:53;;;;;;;5.27;4.90;;;20.50;99.90;;;;;;5006427;28;21190;-52
2022/06/06 01:31:25;;;;;;;5.57;5.07;;;20.50;99.90;;;;;;5010041;28;20456;-52
2022/06/06 01:33:55;;;;;;;4.40;4.20;;;20.50;99.90;;;;;;5009854;28;20551;-52
2022/06/06 01:36:22;;;;;;;5.83;5.20;;;20.40;99.90;;;;;;5010754;28;20579;-52
2022/06/06 01:38:49;;;;;;;5.73;5.20;;;20.40;99.90;;;;;;5010300;28;20471;-52
2022/06/06 01:41:23;;;;;;;12.20;5.30;;;20.30;99.90;;;;;;5011782;28;20546;-52
2022/06/06 01:43:55;;;;;;;6.43;5.87;;;20.10;99.90;;;;;;5016576;28;20542;-52
2022/06/06 01:46:26;;;;;;;5.50;5.10;;;20.00;99.90;;;;;;5021217;28;20557;-52
2022/06/06 01:48:53;;;;;;;5.80;5.40;;;20.00;99.90;;;;;;5015480;28;20476;-52
2022/06/06 01:51:22;;;;;;;5.73;5.33;;;19.80;99.90;;;;;;5013357;28;20535;-52
2022/06/06 01:53:49;;;;;;;6.43;5.83;;;19.80;99.90;;;;;;5014968;28;20479;-53
2022/06/06 01:56:18;;;;;;;6.47;5.97;;;19.70;91.50;;;;;;5010396;28;20563;-51
2022/06/06 01:58:45;;;;;;;6.17;5.67;;;19.70;78.10;;;;;;5017687;28;20888;-52
2022/06/06 02:01:13;;;;;;;6.10;5.70;;;19.60;64.70;;;;;;5012864;28;20915;-53
2022/06/06 02:03:39;;;;;;;6.90;6.20;;;19.50;46.90;;;;;;5019203;28;20482;-54
2022/06/06 02:06:07;;;;;;;6.53;6.00;;;19.40;99.90;;;;;;5013197;28;20511;-53
2022/06/06 02:08:33;;;;;;;7.70;7.00;;;19.00;99.90;;;;;;4996145;28;20829;-52
2022/06/06 02:11:00;;;;;;;7.40;6.83;;;18.80;99.90;;;;;;5022103;28;20622;-52
2022/06/06 02:13:27;;;;;;;9.13;8.07;;;18.60;99.90;;;;;;5015151;28;20486;-52
2022/06/06 02:15:54;;;;;;;9.23;8.27;;;18.40;70.80;;;;;;5034611;28;20984;-53
2022/06/06 02:18:22;;;;;;;12.40;9.17;;;18.10;99.90;;;;;;5035104;28;20486;-52
2022/06/06 02:20:49;;;;;;;10.13;9.13;;;17.90;99.90;;;;;;5022075;28;20974;-53
2022/06/06 02:23:15;;;;;;;9.13;8.23;;;17.70;99.90;;;;;;5013924;28;20491;-53
2022/06/06 02:25:42;;;;;;;11.00;9.30;;;17.50;99.90;;;;;;5014038;28;20515;-52
2022/06/06 02:28:09;;;;;;;11.30;9.00;;;17.40;99.90;;;;;;5015104;28;20809;-53
2022/06/06 02:30:38;;;;;;;14.30;9.90;;;17.20;99.90;;;;;;5022119;28;20472;-53
2022/06/06 02:33:05;;;;;;;17.30;9.80;;;17.20;99.90;;;;;;5014921;28;20981;-52
2022/06/06 02:35:35;;;;;;;11.63;9.57;;;17.10;99.90;;;;;;5018256;28;20503;-52
2022/06/06 02:38:02;;;;;;;15.20;10.67;;;17.00;99.90;;;;;;5022768;28;20543;-53
2022/06/06 02:40:30;;;;;;;25.47;11.43;;;17.00;95.30;;;;;;5013583;28;20865;-53
2022/06/06 02:42:57;;;;;;;12.53;11.30;;;16.90;89.30;;;;;;5010689;28;20483;-53
2022/06/06 02:45:24;;;;;;;15.57;10.90;;;16.90;79.10;;;;;;5015286;28;20467;-52
2022/06/06 02:47:53;;;;;;;13.93;12.40;;;16.90;72.40;;;;;;5034107;28;21002;-53
2022/06/06 02:50:22;;;;;;;15.57;12.70;;;16.90;64.60;;;;;;5026511;28;20498;-53
2022/06/06 02:52:50;;;;;;;13.67;12.30;;;16.90;57.80;;;;;;5012940;28;20830;-53
2022/06/06 02:55:17;;;;;;;18.20;13.87;;;16.90;50.30;;;;;;5012585;28;20479;-52
2022/06/06 02:57:45;;;;;;;14.90;13.40;;;16.80;46.10;;;;;;5011346;28;20505;-53
2022/06/06 03:00:15;;;;;;;14.77;13.20;;;16.80;38.70;;;;;;5014144;28;20443;-54
2022/06/06 03:02:41;;;;;;;14.67;13.17;;;16.80;27.00;;;;;;5013123;28;20479;-52
2022/06/06 03:05:09;;;;;;;14.83;12.83;;;16.90;99.90;;;;;;5015530;28;20518;-53
2022/06/06 03:07:47;;;;;;;13.20;11.83;;;16.80;99.90;;;;;;5014286;28;20448;-52
2022/06/06 03:10:25;;;;;;;22.17;13.17;;;16.80;99.90;;;;;;5013463;28;20547;-52
2022/06/06 03:13:05;;;;;;;15.27;13.73;;;16.70;99.90;;;;;;5013410;28;20486;-52
2022/06/06 03:21:45;;;;;;;14.27;12.80;;;16.70;99.90;;;;;;5011540;28;21007;-53
2022/06/06 03:24:25;;;;;;;14.60;13.17;;;16.70;99.90;;;;;;5004367;28;21000;-52
2022/06/06 03:27:11;;;;;;;19.00;13.43;;;16.70;99.90;;;;;;5013658;28;20483;-52
2022/06/06 03:29:47;;;;;;;14.07;12.80;;;16.70;99.90;;;;;;5020756;28;20506;-53
2022/06/06 03:32:23;;;;;;;15.03;13.33;;;16.70;99.90;;;;;;5012615;28;21007;-52
2022/06/06 03:34:57;;;;;;;16.30;14.03;;;16.60;99.90;;;;;;5008562;28;20455;-51
2022/06/06 03:37:27;;;;;;;19.57;14.20;;;16.70;99.90;;;;;;5013092;28;20541;-53
2022/06/06 03:40:01;;;;;;;18.10;14.57;;;16.60;99.90;;;;;;5014713;28;20562;-52
2022/06/06 03:42:35;;;;;;;14.40;13.20;;;16.60;99.90;;;;;;5009472;28;20998;-52
2022/06/06 03:45:14;;;;;;;16.13;14.57;;;16.60;99.90;;;;;;5013261;28;20455;-52
2022/06/06 03:47:53;;;;;;;18.53;13.63;;;16.60;99.90;;;;;;5013065;28;20550;-52
2022/06/06 03:50:29;;;;;;;15.03;13.57;;;16.60;99.90;;;;;;5009629;28;20491;-53
2022/06/06 03:53:01;;;;;;;14.73;13.40;;;16.50;99.90;;;;;;5008955;28;20498;-52
2022/06/06 03:55:37;;;;;;;13.43;12.30;;;16.60;99.90;;;;;;5027706;28;20512;-52
2022/06/06 03:58:06;;;;;;;14.23;12.77;;;16.50;99.90;;;;;;5006451;28;20495;-52
2022/06/06 04:00:34;;;;;;;14.40;12.93;;;16.50;99.90;;;;;;5016070;28;20498;-53
2022/06/06 04:03:04;;;;;;;14.27;12.87;;;16.50;99.90;;;;;;5011444;28;20578;-52
2022/06/06 04:05:34;;;;;;;17.37;13.57;;;16.50;99.90;;;;;;5010518;28;20491;-52
2022/06/06 04:08:01;;;;;;;15.30;12.90;;;16.60;99.90;;;;;;5022129;28;20521;-53
2022/06/06 04:10:38;;;;;;;13.63;12.33;;;16.60;99.90;;;;;;5030821;28;20509;-53
2022/06/06 04:13:17;;;;;;;18.37;12.50;;;16.60;99.90;;;;;;5032065;28;20463;-52
2022/06/06 04:15:53;;;;;;;14.40;12.90;;;16.70;99.90;;;;;;5018665;28;20534;-52
2022/06/06 04:18:27;;;;;;;17.53;12.70;;;16.70;99.90;;;;;;5015516;28;20464;-52
2022/06/06 04:21:05;;;;;;;21.80;13.43;;;16.70;99.90;;;;;;5023202;28;20446;-52
2022/06/06 04:23:48;;;;;;;14.70;12.07;;;16.70;99.90;;;;;;5032493;28;20485;-52
2022/06/06 04:26:21;;;;;;;13.93;12.73;;;16.80;99.90;;;;;;5020840;28;20578;-53
2022/06/06 04:28:57;;;;;;;13.67;12.37;;;16.70;99.90;;;;;;5012247;28;20472;-52
2022/06/06 04:31:35;;;;;;;14.13;12.73;;;16.70;99.90;;;;;;5001906;28;20547;-52
2022/06/06 04:34:12;;;;;;;14.03;12.63;;;16.80;99.90;;;;;;5008117;28;20558;-52
2022/06/06 04:36:46;;;;;;;14.47;13.07;;;16.80;99.90;;;;;;5013831;28;20489;-52
2022/06/06 04:39:19;;;;;;;15.23;13.73;;;16.90;99.90;;;;;;5010304;28;21004;-51
2022/06/06 04:41:52;;;;;;;14.50;13.13;;;16.90;99.90;;;;;;5009397;28;20577;-54
2022/06/06 04:44:26;;;;;;;14.00;12.80;;;16.90;99.90;;;;;;5009183;28;20542;-54
2022/06/06 04:46:56;;;;;;;14.77;13.53;;;16.80;99.90;;;;;;5012044;28;20566;-51
2022/06/06 04:49:26;;;;;;;14.90;13.60;;;16.90;99.90;;;;;;5011802;28;21027;-53
2022/06/06 04:51:54;;;;;;;15.97;14.37;;;16.90;99.90;;;;;;5010713;28;20527;-53
2022/06/06 04:54:24;;;;;;;14.20;13.10;;;16.90;99.90;;;;;;5016320;28;20463;-52
2022/06/06 04:56:52;;;;;;;16.27;14.97;;;16.90;99.90;;;;;;5012609;28;20518;-53
2022/06/06 04:59:22;;;;;;;21.20;14.97;;;17.00;99.90;;;;;;5011053;28;20502;-52
2022/06/06 05:01:49;;;;;;;15.67;14.40;;;16.90;99.90;;;;;;5031464;28;20525;-53
2022/06/06 05:04:16;;;;;;;15.10;13.90;;;16.90;99.90;;;;;;5016798;28;20993;-53
2022/06/06 05:07:05;;;;;;;15.10;13.90;;;16.90;99.90;;;;;;5005448;28;20497;-53
2022/06/06 05:09:46;;;;;;;18.10;16.50;;;16.90;99.90;;;;;;5010898;28;20495;-53
2022/06/06 05:12:26;;;;;;;16.03;14.50;;;16.90;99.90;;;;;;5012272;28;20455;-52
2022/06/06 05:15:15;;;;;;;16.90;15.30;;;17.00;99.90;;;;;;5012143;28;20495;-53
2022/06/06 05:17:57;;;;;;;14.70;13.40;;;17.00;99.90;;;;;;5016163;28;20549;-52
2022/06/06 05:20:44;;;;;;;17.00;14.50;;;17.00;99.70;;;;;;4998184;28;20891;-53
2022/06/06 05:23:44;;;;;;;16.10;14.47;;;16.90;97.60;;;;;;4991735;28;20945;-53
2022/06/06 05:26:20;;;;;;;15.90;13.80;;;17.00;95.60;;;;;;4982023;28;20513;-52
2022/06/06 05:29:08;;;;;;;15.20;14.00;;;17.00;93.90;;;;;;5061173;22;20588;-57
2022/06/06 05:31:51;;;;;;;13.75;12.43;;;17.00;91.90;;;;;;5038295;28;20888;-54
2022/06/06 05:34:24;;;;;;;15.47;13.93;;;17.00;90.30;;;;;;5047502;28;20231;-55
2022/06/06 05:37:05;;;;;;;15.37;13.43;;;17.00;88.70;;;;;;5039852;28;20463;-55
2022/06/06 05:40:03;;;;;;;14.93;13.40;;;17.10;86.80;;;;;;5050297;28;20564;-55
2022/06/06 05:42:48;;;;;;;16.90;13.17;;;17.10;84.50;;;;;;5049623;28;20552;-55
2022/06/06 05:45:23;;;;;;;14.23;13.03;;;17.20;82.20;;;;;;5045644;28;21067;-55
2022/06/06 05:48:01;;;;;;;12.67;11.13;;;17.20;80.30;;;;;;5049541;28;20503;-55
2022/06/06 05:50:41;;;;;;;13.70;12.60;;;17.30;78.70;;;;;;5044684;28;20901;-55
2022/06/06 05:53:25;;;;;;;11.43;10.53;;;17.30;77.30;;;;;;5045050;28;20533;-55
2022/06/06 05:56:09;;;;;;;12.20;11.20;;;17.30;75.30;;;;;;5047724;28;20495;-54
2022/06/06 05:58:50;;;;;;;11.40;10.40;;;17.40;73.90;;;;;;5037887;28;20504;-55
2022/06/06 06:01:32;;;;;;;11.53;10.43;;;17.50;72.40;;;;;;5030708;28;21043;-55
2022/06/06 06:04:21;;;;;;;10.80;9.90;;;17.50;71.40;;;;;;5046464;28;20520;-54
2022/06/06 06:06:51;;;;;;;9.80;9.10;;;17.50;71.10;;;;;;5052435;28;20493;-54
2022/06/06 06:09:39;;;;;;;9.63;8.80;;;17.60;71.80;;;;;;5058008;28;20486;-54
2022/06/06 06:12:22;;;;;;;8.97;8.27;;;17.60;73.00;;;;;;5055703;28;20458;-54
2022/06/06 06:15:01;;;;;;;10.57;9.60;;;17.60;75.10;;;;;;5059210;28;20855;-55
2022/06/06 06:17:31;;;;;;;8.77;8.10;;;17.70;75.60;;;;;;5041638;28;20547;-54
2022/06/06 06:20:03;;;;;;;9.97;9.07;;;17.70;79.20;;;;;;5044663;28;20454;-54
2022/06/06 06:22:36;;;;;;;10.27;9.27;;;17.80;80.00;;;;;;5049573;28;20517;-54
2022/06/06 06:25:05;;;;;;;10.07;9.27;;;17.80;84.50;;;;;;5050431;28;20457;-54
2022/06/06 06:27:33;;;;;;;9.37;8.67;;;17.80;91.20;;;;;;5050811;28;20918;-54
2022/06/06 06:30:00;;;;;;;9.43;8.73;;;17.80;95.90;;;;;;5053601;28;20515;-54
2022/06/06 06:32:48;;;;;;;9.70;8.90;;;17.90;99.70;;;;;;5069009;28;20480;-54
2022/06/06 06:35:24;;;;;;;9.90;9.00;;;17.90;99.90;;;;;;5057027;28;20469;-55
2022/06/06 06:38:18;;;;;;;11.80;9.17;;;17.90;99.90;;;;;;5057086;28;20513;-55
2022/06/06 06:40:50;;;;;;;9.37;8.57;;;17.90;99.90;;;;;;5047028;28;20489;-55
2022/06/06 06:43:26;;;;;;;9.30;8.40;;;17.90;99.90;;;;;;5054105;28;20510;-55
2022/06/06 06:46:00;;;;;;;10.03;9.10;;;17.90;99.90;;;;;;5053632;28;20551;-54
2022/06/06 06:48:33;;;;;;;10.07;9.20;;;17.80;99.90;;;;;;5051079;28;20573;-55
2022/06/06 06:51:07;;;;;;;10.00;8.60;;;17.90;99.90;;;;;;5055475;28;20465;-55
2022/06/06 06:53:55;;;;;;;9.83;8.93;;;18.00;99.90;;;;;;5055457;28;20491;-54
2022/06/06 06:56:37;;;;;;;9.67;8.73;;;18.10;99.90;;;;;;5053075;28;20485;-54
2022/06/06 06:59:10;;;;;;;9.90;9.00;;;18.20;99.90;;;;;;5050274;28;20545;-55
2022/06/06 07:08:32;;;;;;;9.47;8.67;;;18.30;99.90;;;;;;5046309;28;20467;-55
2022/06/06 07:10:23;;;;;;;8.50;7.70;;;18.40;32.90;;;;;;5057252;28;20460;-54
2022/06/06 07:13:07;;;;;;;8.30;7.70;;;18.40;51.20;;;;;;5049779;28;20490;-55
2022/06/06 07:15:42;;;;;;;8.47;7.77;;;18.40;81.10;;;;;;5041621;28;20509;-54
2022/06/06 07:18:11;;;;;;;9.50;8.23;;;18.50;99.90;;;;;;5061359;28;20910;-55
2022/06/06 07:20:41;;;;;;;9.33;8.40;;;18.60;99.90;;;;;;5045333;28;20518;-54
2022/06/06 07:23:12;;;;;;;9.80;8.90;;;18.70;99.90;;;;;;5033291;28;20514;-54
2022/06/06 07:25:40;;;;;;;13.53;9.47;;;18.80;99.90;;;;;;5049646;28;20469;-53
2022/06/06 07:28:09;;;;;;;9.67;8.87;;;18.90;99.90;;;;;;5060436;28;20568;-53
2022/06/06 07:30:40;;;;;;;10.33;9.27;;;19.00;99.90;;;;;;5073628;28;20479;-53
2022/06/06 07:33:25;;;;;;;10.93;9.13;;;19.10;99.90;;;;;;5055996;28;20469;-53
2022/06/06 07:36:00;;;;;;;11.60;10.40;;;19.20;99.90;;;;;;5051431;28;20462;-52
2022/06/06 07:38:43;;;;;;;9.93;9.03;;;19.20;99.90;;;;;;5064173;28;20512;-53
2022/06/06 07:41:25;;;;;;;9.40;8.43;;;19.40;28.40;;;;;;5050864;28;20505;-53
2022/06/06 07:44:05;;;;;;;11.63;8.80;;;19.50;51.90;;;;;;5048118;28;20551;-53
2022/06/06 07:46:44;;;;;;;9.40;8.63;;;19.50;46.40;;;;;;5050985;28;20485;-52
2022/06/06 07:49:19;;;;;;;9.90;8.30;;;19.60;82.90;;;;;;5051987;28;20879;-53
2022/06/06 07:51:51;;;;;;;9.23;8.53;;;19.70;81.30;;;;;;5049279;28;20522;-54
2022/06/06 07:54:28;;;;;;;8.77;7.97;;;19.70;96.20;;;;;;5053024;28;20478;-53
2022/06/06 07:57:02;;;;;;;10.27;8.03;;;19.70;99.90;;;;;;5047526;28;20493;-53
2022/06/06 07:59:41;;;;;;;8.80;7.33;;;19.80;99.90;;;;;;5051716;28;20622;-53
2022/06/06 08:02:32;;;;;;;8.13;7.47;;;19.90;96.30;;;;;;5049326;28;20496;-54
2022/06/06 08:05:13;;;;;;;8.30;6.70;;;20.00;99.90;;;;;;5051251;28;20489;-54
2022/06/06 08:07:45;;;;;;;7.60;7.00;;;20.10;99.90;;;;;;5051013;28;20485;-54
2022/06/06 08:10:25;;;;;;;7.10;6.53;;;20.20;99.90;;;;;;5051333;28;20999;-54
2022/06/06 08:13:13;;;;;;;6.90;6.43;;;20.20;99.90;;;;;;5044568;28;20461;-54
2022/06/06 08:15:51;;;;;;;7.07;6.57;;;20.40;99.90;;;;;;5044557;28;20995;-55
2022/06/06 08:18:49;;;;;;;6.90;6.40;;;20.40;99.90;;;;;;5050967;28;20572;-54
2022/06/06 08:21:22;;;;;;;6.73;6.23;;;20.50;99.90;;;;;;5047803;28;20508;-55
2022/06/06 08:23:52;;;;;;;6.63;6.10;;;20.70;99.90;;;;;;5050770;28;20569;-53
2022/06/06 08:26:21;;;;;;;6.70;6.00;;;20.70;99.90;;;;;;5056950;28;20461;-53
2022/06/06 08:28:50;;;;;;;5.60;5.20;;;20.90;99.90;;;;;;5050768;28;20509;-54
2022/06/06 08:31:18;;;;;;;6.70;5.93;;;21.00;99.90;;;;;;5049743;28;21180;-54
2022/06/06 08:33:45;;;;;;;5.70;5.20;;;20.90;99.90;;;;;;5047746;28;20457;-54
2022/06/06 08:36:31;;;;;;;5.93;5.43;;;21.00;22.30;;;;;;5049570;28;20497;-53
2022/06/06 08:39:06;;;;;;;6.20;5.70;;;21.00;99.90;;;;;;5048803;28;20513;-54
2022/06/06 08:41:59;;;;;;;5.20;4.90;;;21.10;99.90;;;;;;5048319;28;20804;-53
2022/06/06 08:44:33;;;;;;;9.53;6.00;;;21.10;99.90;;;;;;5050976;28;20509;-54
2022/06/06 08:47:10;;;;;;;7.10;6.50;;;21.10;99.90;;;;;;5049488;28;20513;-55
2022/06/06 08:53:17;;;;;;;11.87;6.20;;;21.00;20.80;;;;;;5050479;28;20950;-55
2022/06/06 08:56:05;;;;;;;6.00;5.50;;;21.00;27.50;;;;;;5043828;28;20485;-55
2022/06/06 08:59:07;;;;;;;6.00;5.50;;;21.10;22.60;;;;;;5050064;28;20505;-55
2022/06/06 09:01:58;;;;;;;5.60;5.13;;;21.30;30.80;;;;;;5053570;28;20535;-55
2022/06/06 09:04:56;;;;;;;5.23;4.83;;;21.50;44.30;;;;;;5049585;28;21074;-54
2022/06/06 09:08:07;;;;;;;5.43;4.93;;;21.70;62.60;;;;;;5048951;28;20507;-55
2022/06/06 09:10:57;;;;;;;5.60;5.20;;;22.00;68.50;;;;;;5042565;28;21026;-54
2022/06/06 09:13:59;;;;;;;5.10;4.70;;;22.20;79.90;;;;;;5056792;28;20474;-56
2022/06/06 09:16:53;;;;;;;9.30;5.03;;;22.10;80.40;;;;;;5037369;28;20533;-55
2022/06/06 09:19:59;;;;;;;9.07;5.80;;;21.90;85.80;;;;;;5051823;28;20964;-55
2022/06/06 09:23:06;;;;;;;5.90;5.40;;;21.70;88.60;;;;;;5040274;28;20486;-55
2022/06/06 09:25:38;;;;;;;5.97;4.80;;;21.60;74.60;;;;;;5046011;28;20556;-55
2022/06/06 09:28:35;;;;;;;5.67;5.17;;;21.60;83.10;;;;;;5044425;28;20525;-55
2022/06/06 09:31:37;;;;;;;4.83;4.43;;;21.90;77.60;;;;;;5001973;28;20549;-56
2022/06/06 09:34:34;;;;;;;5.27;4.77;;;22.20;92.50;;;;;;5044311;28;20540;-55
2022/06/06 09:37:06;;;;;;;4.80;4.50;;;22.50;99.90;;;;;;5044903;28;20505;-55
2022/06/06 09:39:36;;;;;;;5.43;5.03;;;22.70;99.90;;;;;;5043439;28;20464;-55
2022/06/06 09:42:18;;;;;;;4.43;4.23;;;22.80;99.90;;;;;;5046733;28;20540;-55
2022/06/06 09:45:17;;;;;;;5.13;4.73;;;22.60;99.90;;;;;;5050604;28;20922;-55
2022/06/06 09:48:20;;;;;;;4.97;4.67;;;22.60;99.90;;;;;;5037241;28;20488;-56
2022/06/06 09:51:12;;;;;;;5.87;5.40;;;22.40;99.90;;;;;;5048092;28;20482;-55
2022/06/06 10:00:24;;;;;;;4.83;4.20;;;22.40;99.90;;;;;;5033611;28;20533;-55
2022/06/06 10:03:36;;;;;;;7.03;4.93;;;22.40;99.90;;;;;;5050287;28;20500;-55
2022/06/06 10:06:42;;;;;;;4.87;4.43;;;22.40;99.90;;;;;;5049804;28;20497;-55
2022/06/06 10:09:37;;;;;;;9.90;4.80;;;22.60;99.90;;;;;;5049444;28;20515;-54
2022/06/06 10:12:25;;;;;;;5.13;4.30;;;22.60;99.90;;;;;;5053000;28;20545;-56
2022/06/06 10:15:26;;;;;;;4.37;4.07;;;22.60;99.90;;;;;;5047801;28;20493;-55
2022/06/06 10:18:23;;;;;;;4.80;4.30;;;22.50;99.90;;;;;;5052996;28;20840;-55
2022/06/06 10:21:11;;;;;;;4.33;4.03;;;22.60;99.90;;;;;;5045803;28;20982;-54
2022/06/06 10:23:51;;;;;;;5.00;4.60;;;22.60;99.90;;;;;;5046239;28;20528;-55
2022/06/06 10:26:32;;;;;;;5.30;4.80;;;22.60;99.90;;;;;;5041487;28;20536;-55
2022/06/06 10:29:23;;;;;;;3.90;3.70;;;22.50;99.90;;;;;;5047891;28;20572;-55
2022/06/06 10:32:19;;;;;;;5.43;3.93;;;22.50;99.90;;;;;;5042109;28;20557;-53
2022/06/06 10:35:09;;;;;;;4.60;4.00;;;22.60;99.90;;;;;;5053310;28;20551;-53
2022/06/06 10:37:58;;;;;;;4.20;3.90;;;22.70;99.90;;;;;;5045425;28;20572;-53
2022/06/06 10:40:52;;;;;;;4.13;3.83;;;22.70;99.90;;;;;;5038795;28;20667;-53
2022/06/06 10:43:41;;;;;;;4.30;3.30;;;22.60;99.90;;;;;;5040364;28;20564;-54
2022/06/06 10:46:16;;;;;;;3.50;3.30;;;22.50;99.90;;;;;;5040410;28;21716;-54
2022/06/06 10:48:58;;;;;;;4.23;3.97;;;22.40;99.90;;;;;;5049292;28;20485;-53
2022/06/06 10:51:58;;;;;;;8.90;4.10;;;22.60;99.90;;;;;;5047417;28;20550;-55
2022/06/06 10:55:01;;;;;;;3.90;3.60;;;22.90;99.90;;;;;;5053445;28;20549;-51
2022/06/06 10:57:52;;;;;;;4.40;4.10;;;23.00;99.90;;;;;;5047862;28;20560;-50
2022/06/06 11:00:26;;;;;;;5.70;4.20;;;23.00;99.90;;;;;;5053524;28;20454;-51
2022/06/06 11:03:24;;;;;;;5.40;3.73;;;23.00;99.90;;;;;;5047178;28;20507;-50
2022/06/06 11:06:08;;;;;;;4.20;3.90;;;23.10;99.90;;;;;;5050333;28;20497;-50
2022/06/06 11:09:13;;;;;;;7.57;5.60;;;23.30;99.90;;;;;;5054527;28;20486;-50
2022/06/06 11:12:13;;;;;;;3.97;3.57;;;23.60;99.90;;;;;;5048645;28;20465;-50
2022/06/06 11:14:44;;;;;;;4.40;4.03;;;23.60;99.90;;;;;;5047434;28;20493;-50
2022/06/06 11:17:54;;;;;;;3.90;3.60;;;23.80;99.90;;;;;;5058188;28;21073;-51
2022/06/06 11:20:48;;;;;;;4.13;3.83;;;24.00;99.90;;;;;;4983924;28;20492;-50
2022/06/06 11:23:20;;;;;;;3.70;3.03;;;24.10;99.90;;;;;;4983779;28;20500;-50
2022/06/06 11:25:57;;;;;;;2.97;2.87;;;24.10;99.90;;;;;;5023962;28;20494;-50
2022/06/06 11:29:10;;;;;;;3.33;3.23;;;24.00;99.90;;;;;;5051687;28;20525;-49
2022/06/06 11:31:50;;;;;;;3.97;3.73;;;23.80;99.90;;;;;;4989654;28;20464;-55
2022/06/06 11:34:45;;;;;;;3.50;3.20;;;23.70;99.90;;;;;;5049777;28;20462;-53
2022/06/06 11:37:57;;;;;;;3.07;2.87;;;23.50;99.90;;;;;;5052234;28;20470;-54
2022/06/06 11:40:50;;;;;;;3.17;3.00;;;23.30;99.90;;;;;;5054465;28;20458;-54
2022/06/06 11:43:50;;;;;;;6.17;2.90;;;23.30;99.90;;;;;;5049914;28;20553;-54
2022/06/06 11:46:42;;;;;;;3.93;3.53;;;23.30;99.90;;;;;;5055878;28;20512;-53
2022/06/06 11:49:35;;;;;;;3.03;2.83;;;23.20;99.90;;;;;;5045671;28;20519;-53
2022/06/06 11:52:28;;;;;;;4.37;3.53;;;23.30;99.90;;;;;;5044898;28;20507;-54
2022/06/06 11:55:15;;;;;;;3.60;3.30;;;23.30;99.90;;;;;;5007567;28;20514;-55
2022/06/06 11:58:04;;;;;;;3.87;3.57;;;23.30;99.90;;;;;;5049338;28;20508;-55
2022/06/06 12:00:44;;;;;;;3.50;3.30;;;23.30;99.90;;;;;;5050325;28;20471;-55
2022/06/06 12:03:48;;;;;;;5.13;3.47;;;23.30;99.90;;;;;;5043556;28;20497;-55
2022/06/06 12:06:47;;;;;;;8.80;6.57;;;23.30;99.90;;;;;;5047791;28;20449;-55
2022/06/06 12:09:26;;;;;;;4.03;3.60;;;23.40;99.90;;;;;;5045011;28;21169;-55
2022/06/06 12:12:26;;;;;;;4.40;3.50;;;23.50;99.90;;;;;;5040582;28;20994;-55
2022/06/06 12:15:14;;;;;;;3.07;2.87;;;23.50;99.90;;;;;;5049256;28;20516;-55
2022/06/06 12:17:52;;;;;;;5.27;3.50;;;23.50;99.90;;;;;;5063489;28;20488;-55
2022/06/06 12:20:44;;;;;;;3.57;3.37;;;23.50;99.90;;;;;;5063447;28;21978;-54
2022/06/06 12:23:18;;;;;;;5.73;3.00;;;23.50;99.90;;;;;;5053268;28;20503;-54
2022/06/06 12:26:15;;;;;;;4.43;3.40;;;23.50;99.90;;;;;;5038931;28;20492;-54
2022/06/06 12:29:14;;;;;;;3.60;3.40;;;23.70;99.90;;;;;;5045491;28;20912;-54
2022/06/06 12:31:48;;;;;;;3.40;3.10;;;23.80;99.90;;;;;;5011483;28;20482;-54
2022/06/06 12:34:21;;;;;;;3.43;2.93;;;23.80;99.90;;;;;;5045449;28;20461;-53
2022/06/06 12:36:56;;;;;;;3.43;3.20;;;23.80;99.90;;;;;;5046253;28;20883;-52
2022/06/06 12:39:34;;;;;;;9.80;3.33;;;23.80;99.90;;;;;;5046335;28;20493;-54
2022/06/06 12:42:11;;;;;;;3.00;2.90;;;23.80;99.90;;;;;;5048662;28;21037;-54
2022/06/06 12:44:59;;;;;;;4.30;3.47;;;23.80;99.90;;;;;;5046151;28;20626;-54
2022/06/06 12:47:47;;;;;;;3.47;3.27;;;23.90;99.90;;;;;;5056465;28;20585;-54
2022/06/06 12:50:25;;;;;;;14.80;6.30;;;24.00;99.90;;;;;;5041516;28;20554;-54
2022/06/06 12:53:20;;;;;;;4.77;3.27;;;24.10;99.90;;;;;;5043259;28;20544;-53
2022/06/06 12:59:12;;;;;;;3.40;3.20;;;24.00;99.90;;;;;;5009173;28;20584;-53
2022/06/06 13:01:47;;;;;;;6.83;3.70;;;23.90;99.90;;;;;;5041305;28;20512;-53
2022/06/06 13:04:38;;;;;;;3.97;3.67;;;23.80;99.90;;;;;;5053417;28;20500;-53
2022/06/06 13:07:17;;;;;;;7.27;3.23;;;23.80;99.90;;;;;;5053034;28;20474;-54
2022/06/06 13:10:01;;;;;;;3.73;3.40;;;23.70;99.90;;;;;;5045328;28;20453;-52
2022/06/06 13:12:45;;;;;;;7.13;4.00;;;23.80;99.90;;;;;;5045736;28;20461;-55
2022/06/06 13:15:20;;;;;;;4.27;3.50;;;23.80;99.90;;;;;;5041655;28;21135;-54
2022/06/06 13:18:01;;;;;;;3.63;3.43;;;23.80;99.90;;;;;;5044269;28;20473;-54
2022/06/06 13:20:40;;;;;;;4.03;3.30;;;23.80;99.90;;;;;;5044752;28;20465;-53
2022/06/06 13:23:34;;;;;;;3.90;3.63;;;23.90;99.90;;;;;;5045945;28;20460;-53
2022/06/06 13:26:34;;;;;;;3.50;3.30;;;24.10;99.90;;;;;;5032377;28;20572;-53
2022/06/06 13:29:02;;;;;;;4.20;3.60;;;24.30;99.90;;;;;;5044133;28;20573;-54
2022/06/06 13:31:44;;;;;;;6.53;2.87;;;24.50;99.90;;;;;;5046109;28;20493;-54
2022/06/06 13:34:24;;;;;;;11.23;5.80;;;24.70;99.90;;;;;;5048268;28;20454;-54
2022/06/06 13:37:12;;;;;;;3.37;3.17;;;24.70;99.90;;;;;;5043393;28;20540;-54
2022/06/06 13:39:58;;;;;;;3.17;2.97;;;24.40;1.40;;;;;;5049272;28;20482;-55
2022/06/06 13:42:41;;;;;;;3.23;3.03;;;24.30;1.40;;;;;;5047934;28;22510;-53
2022/06/06 13:45:25;;;;;;;4.17;3.87;;;24.10;99.90;;;;;;5054807;28;20477;-54
2022/06/06 13:48:23;;;;;;;3.93;3.63;;;24.00;99.90;;;;;;5048623;28;20474;-53
2022/06/06 13:50:59;;;;;;;5.13;3.83;;;23.80;1.40;;;;;;5046139;28;20996;-53
2022/06/06 13:53:50;;;;;;;20.73;10.60;;;23.70;99.90;;;;;;5051563;28;20496;-53
2022/06/06 13:56:43;;;;;;;3.27;3.10;;;23.60;99.90;;;;;;5041563;28;20457;-53
2022/06/06 13:59:28;;;;;;;3.57;3.37;;;23.60;99.90;;;;;;5050942;28;21041;-55
2022/06/06 14:02:18;;;;;;;5.90;4.50;;;23.60;99.90;;;;;;5049732;28;20488;-54
2022/06/06 14:04:59;;;;;;;7.63;4.33;;;23.50;99.90;;;;;;5048639;28;20667;-53
2022/06/06 14:07:56;;;;;;;23.23;7.80;;;23.50;99.90;;;;;;5046345;28;21081;-54
2022/06/06 14:10:23;;;;;;;5.47;3.50;;;23.50;99.90;;;;;;5053622;28;20544;-53
2022/06/06 14:13:03;;;;;;;3.57;3.37;;;23.50;99.90;;;;;;5048467;28;20553;-54
2022/06/06 14:15:30;;;;;;;3.90;3.60;;;23.40;99.90;;;;;;5068233;28;21055;-54